ADDS METAR Data INFO
IDs: Format: Raw Decoded Include TAF

Data at: 0101 UTC 22 Oct 2017

KADU 220055Z AUTO 30006KT 10SM SCT080 SCT085 12/08 A2986 RMK AO2
KADU 220035Z AUTO 31007KT 10SM SCT060 BKN080 OVC085 13/09 A2987 RMK AO2
KADU 220015Z AUTO 32007KT 10SM SCT060 OVC065 13/09 A2985 RMK AO2
KADU 212355Z AUTO 30004KT 10SM SCT045 BKN060 OVC065 13/10 A2985 RMK AO2
KADU 212335Z AUTO 30005KT 10SM SCT043 OVC060 13/10 A2984 RMK AO2
KADU 212315Z AUTO 31006KT 10SM SCT060 BKN075 BKN090 13/11 A2982 RMK AO2
KADU 212255Z AUTO 30009KT 280V340 10SM BKN090 BKN110 14/11 A2980 RMK AO2 P0003
KADU 212235Z AUTO 30007KT 10SM SCT047 SCT100 14/11 A2980 RMK AO2 P0003
KADU 212215Z AUTO 31009G19KT 10SM -RA SCT006 BKN050 OVC100 14/12 A2978 RMK AO2 P0003
KADU 212155Z AUTO 30016G25KT 1SM +RA BKN002 BKN011 OVC021 17/15 A2977 RMK AO2 P0039
KADU 212135Z AUTO 23014G17KT 7SM RA SCT029 BKN042 OVC050 21/18 A2973 RMK AO2 P0003
KADU 212115Z AUTO 17010G20KT 10SM SCT030 BKN035 BKN046 22/18 A2970 RMK AO2
KADU 212055Z AUTO 18011G20KT 10SM BKN029 BKN036 22/18 A2970 RMK AO2
KADU 212035Z AUTO 18011G20KT 10SM BKN029 BKN034 22/18 A2970 RMK AO2
KADU 212015Z AUTO 18015G22KT 10SM BKN027 BKN035 22/18 A2969 RMK AO2
KADU 211955Z AUTO 17013G21KT 10SM SCT027 SCT031 BKN065 22/18 A2970 RMK AO2
KADU 211935Z AUTO 17014G23KT 10SM SCT027 BKN065 22/18 A2971 RMK AO2
KADU 211915Z AUTO 17015G25KT 10SM BKN055 22/18 A2971 RMK AO2
KADU 211855Z AUTO 18012G22KT 10SM SCT033 BKN055 21/18 A2972 RMK AO2
KADU 211835Z AUTO 18013G22KT 10SM SCT026 BKN033 OVC048 21/17 A2972 RMK AO2
KADU 211815Z AUTO 17015G22KT 10SM BKN026 OVC038 21/17 A2972 RMK AO2
KADU 211755Z AUTO 18014G22KT 10SM SCT024 OVC049 21/17 A2972 RMK AO2
KADU 211735Z AUTO 17016G22KT 10SM SCT024 OVC049 21/17 A2971 RMK AO2
KADU 211715Z AUTO 18014G22KT 10SM SCT024 SCT034 BKN047 20/17 A2972 RMK AO2
KADU 211655Z AUTO 17012G24KT 10SM SCT024 OVC034 19/17 A2972 RMK AO2
KADU 211635Z AUTO 17013G21KT 10SM BKN027 OVC034 19/16 A2972 RMK AO2
KADU 211615Z AUTO 17012G20KT 10SM OVC029 19/16 A2973 RMK AO2
KADU 211555Z AUTO 17014G21KT 10SM OVC027 19/16 A2973 RMK AO2
KADU 211535Z AUTO 18012G18KT 10SM OVC023 19/16 A2973 RMK AO2
KADU 211515Z AUTO 18013G18KT 10SM OVC021 18/16 A2973 RMK AO2
KADU 211455Z AUTO 18008G16KT 10SM OVC021 18/16 A2973 RMK AO2
KADU 211435Z AUTO 18013G18KT 10SM OVC021 18/16 A2972 RMK AO2
KADU 211415Z AUTO 17012G20KT 10SM OVC019 18/16 A2971 RMK AO2
KADU 211355Z AUTO 17012G21KT 10SM OVC019 18/16 A2972 RMK AO2
KADU 211335Z AUTO 18014G18KT 10SM OVC019 18/16 A2971 RMK AO2
KADU 211315Z AUTO 17014G21KT 10SM OVC019 18/16 A2971 RMK AO2
KADU 211255Z AUTO 17012G19KT 10SM OVC019 18/16 A2971 RMK AO2
KADU 211235Z AUTO 17011G17KT 10SM OVC019 18/16 A2970 RMK AO2
KADU 211215Z AUTO 17011G21KT 10SM OVC019 18/16 A2970 RMK AO2
KADU 211155Z AUTO 17012G19KT 10SM OVC019 18/16 A2970 RMK AO2
KADU 211115Z AUTO 16007KT 10SM OVC019 17/15 A2971 RMK AO2
KADU 211055Z AUTO 17008G15KT 10SM OVC021 17/15 A2970 RMK AO2 P0003
KADU 211035Z AUTO 17012G19KT 10SM -RA SCT016 OVC021 17/15 A2970 RMK AO2 P0001
KADU 211015Z AUTO 16010G16KT 10SM OVC021 17/15 A2969 RMK AO2
KADU 210955Z AUTO 16009KT 10SM OVC019 16/14 A2970 RMK AO2 P0007
KADU 210935Z AUTO 17007KT 10SM -RA BKN024 OVC033 16/14 A2971 RMK AO2 P0007
KADU 210915Z AUTO 18010KT 7SM +RA BKN021 OVC033 16/14 A2973 RMK AO2 P0003
KADU 210855Z AUTO 17009KT 10SM RA BKN021 BKN080 OVC110 16/14 A2972 RMK AO2 P0003
KADU 210835Z AUTO 16010KT 10SM -RA SCT027 BKN085 OVC110 16/14 A2971 RMK AO2 P0002
KADU 210815Z AUTO 18011G19KT 10SM -RA SCT027 BKN044 OVC100 16/14 A2973 RMK AO2 P0001
KADU 210755Z AUTO 17014G20KT 10SM -RA SCT027 SCT044 BKN090 17/14 A2973 RMK AO2
KADU 210735Z AUTO 17013G19KT 10SM BKN090 17/13 A2972 RMK AO2
KADU 210715Z AUTO 17013G19KT 10SM SCT090 17/13 A2973 RMK AO2
KADU 210655Z AUTO 17013G19KT 10SM CLR 17/13 A2973 RMK AO2
KADU 210635Z AUTO 17015G24KT 10SM CLR 17/14 A2974 RMK AO2
KADU 210615Z AUTO 18015G18KT 10SM CLR 17/14 A2975 RMK AO2
KADU 210555Z AUTO 17014G24KT 10SM CLR 17/14 A2975 RMK AO2
KADU 210535Z AUTO 16015G23KT 10SM CLR 17/14 A2975 RMK AO2
KADU 210515Z AUTO 17012G20KT 10SM CLR 17/14 A2976 RMK AO2
KADU 210455Z AUTO 17014G20KT 10SM CLR 18/14 A2977 RMK AO2
KADU 210435Z AUTO 17014G22KT 10SM CLR 18/14 A2977 RMK AO2
KADU 210415Z AUTO 17015G20KT 10SM SCT055 18/14 A2977 RMK AO2
KADU 210355Z AUTO 17015G20KT 10SM OVC055 18/14 A2978 RMK AO2
KADU 210335Z AUTO 17015G20KT 10SM BKN055 18/14 A2978 RMK AO2
KADU 210315Z AUTO 17013G19KT 10SM CLR 18/14 A2978 RMK AO2
KADU 210255Z AUTO 17012G20KT 10SM CLR 18/14 A2979 RMK AO2
KADU 210235Z AUTO 17015G21KT 10SM CLR 18/14 A2979 RMK AO2
KADU 210215Z AUTO 17013G20KT 10SM CLR 18/14 A2978 RMK AO2
KADU 210155Z AUTO 16014G19KT 10SM CLR 18/14 A2978 RMK AO2
KADU 210135Z AUTO 16010G17KT 10SM CLR 18/14 A2978 RMK AO2
KADU 210115Z AUTO 16011G17KT 10SM CLR 18/14 A2978 RMK AO2
KADU 210055Z AUTO 16012KT 10SM CLR 19/14 A2978 RMK AO2
KADU 210035Z AUTO 17009G20KT 10SM CLR 19/14 A2978 RMK AO2
KADU 210015Z AUTO 16011G18KT 10SM SCT047 20/14 A2978 RMK AO2
KADU 202355Z AUTO 16013G18KT 10SM BKN047 20/14 A2978 RMK AO2
KADU 202335Z AUTO 17013G16KT 10SM SCT049 21/14 A2979 RMK AO2
KADU 202315Z AUTO 17012G19KT 10SM CLR 21/14 A2978 RMK AO2
KADU 202255Z AUTO 17013G22KT 10SM CLR 21/14 A2978 RMK AO2
KADU 202235Z AUTO 17016G25KT 10SM CLR 22/14 A2979 RMK AO2
KADU 202215Z AUTO 16016G22KT 10SM SCT047 22/14 A2979 RMK AO2
KADU 202155Z AUTO 17017G32KT 10SM SCT047 23/15 A2979 RMK AO2
KADU 202135Z AUTO 16021G25KT 10SM CLR 23/14 A2979 RMK AO2
KADU 202115Z AUTO 17015G23KT 10SM CLR 24/14 A2980 RMK AO2
KADU 202055Z AUTO 18018G25KT 10SM CLR 23/14 A2980 RMK AO2
KADU 202035Z AUTO 16015G26KT 7SM CLR 23/14 A2981 RMK AO2
KADU 202015Z AUTO 17016G21KT 10SM CLR 23/14 A2982 RMK AO2
KADU 201935Z AUTO 17015G22KT 10SM CLR 23/14 A2983 RMK AO2
KADU 201915Z AUTO 16015G22KT 10SM CLR 24/14 A2984 RMK AO2
KADU 201855Z AUTO 17011G21KT 10SM CLR 23/14 A2985 RMK AO2
KADU 201835Z AUTO 17016G21KT 10SM CLR 23/14 A2987 RMK AO2
KADU 201815Z AUTO 17015G23KT 10SM CLR 23/14 A2988 RMK AO2
KADU 201755Z AUTO 18016G23KT 10SM CLR 22/14 A2990 RMK AO2
KADU 201735Z AUTO 18014G20KT 10SM CLR 21/14 A2992 RMK AO2
KADU 201715Z AUTO 17014G20KT 10SM CLR 21/14 A2993 RMK AO2
KADU 201655Z AUTO 18013G19KT 10SM CLR 20/14 A2994 RMK AO2
KADU 201635Z AUTO 18011G18KT 10SM CLR 19/13 A2995 RMK AO2
KADU 201615Z AUTO 18011G17KT 160V220 10SM CLR 18/13 A2996 RMK AO2
KADU 201555Z AUTO 18012G19KT 10SM CLR 18/13 A2997 RMK AO2
KADU 201535Z AUTO 18012G21KT 10SM CLR 18/13 A2998 RMK AO2
KADU 201515Z AUTO 18014G20KT 10SM CLR 18/13 A2998 RMK AO2
KADU 201455Z AUTO 18013G18KT 10SM CLR 18/13 A2998 RMK AO2
KADU 201435Z AUTO 18011G18KT 10SM CLR 17/13 A2998 RMK AO2
KADU 201415Z AUTO 17008KT 10SM CLR 16/12 A2998 RMK AO2
KADU 201355Z AUTO 18007KT 10SM CLR 14/12 A2999 RMK AO2
KADU 201335Z AUTO 18007KT 10SM CLR 14/11 A2999 RMK AO2
KADU 201315Z AUTO 18006KT 10SM CLR 13/11 A2999 RMK AO2